createdAt,value
2023-03-29T00:00:52.588Z,101599.44
2023-03-29T00:03:19.295Z,101596.75
2023-03-29T00:05:46.462Z,101589.66
2023-03-29T00:08:14.606Z,101602.84
2023-03-29T00:10:42.059Z,101599.28
2023-03-29T00:13:08.670Z,101594.13
2023-03-29T00:15:35.589Z,101593.34
2023-03-29T00:18:02.476Z,101582.66
2023-03-29T00:20:29.138Z,101577.56
2023-03-29T00:22:55.731Z,101577.47
2023-03-29T00:25:22.392Z,101573.16
2023-03-29T00:27:49.161Z,101575.81
2023-03-29T00:30:16.430Z,101578.47
2023-03-29T00:32:43.682Z,101564.38
2023-03-29T00:35:10.969Z,101570.44
2023-03-29T00:37:38.481Z,101566.06
2023-03-29T00:40:09.601Z,101567.91
2023-03-29T00:42:36.193Z,101557.44
2023-03-29T00:45:02.734Z,101559.25
2023-03-29T00:47:38.270Z,101557.34
2023-03-29T00:50:12.434Z,101553.84
2023-03-29T00:52:39.832Z,101543.19
2023-03-29T00:55:11.742Z,101547.63
2023-03-29T00:57:39.828Z,101554.66
2023-03-29T01:00:10.210Z,101542.38
2023-03-29T01:02:39.915Z,101544.09
2023-03-29T01:05:10.216Z,101541.53
2023-03-29T01:08:03.898Z,101540.59
2023-03-29T01:10:41.826Z,101551.91
2023-03-29T01:13:11.588Z,101544.03
2023-03-29T01:15:41.061Z,101539.56
2023-03-29T01:18:08.764Z,101533.41
2023-03-29T01:20:43.423Z,101536.94
2023-03-29T01:23:22.210Z,101525.47
2023-03-29T01:26:01.115Z,101516.63
2023-03-29T01:28:37.278Z,101499.13
2023-03-29T01:31:08.505Z,101501.84
2023-03-29T01:33:40.311Z,101509.72
2023-03-29T01:36:17.494Z,101511.44
2023-03-29T01:38:48.404Z,101500.84
2023-03-29T01:41:14.996Z,101510.47
2023-03-29T01:43:46.864Z,101498.09
2023-03-29T01:46:28.149Z,101492.91
2023-03-29T01:49:11.246Z,101502.44
2023-03-29T01:51:44.254Z,101495.28
2023-03-29T01:54:20.776Z,101491.88
2023-03-29T01:56:49.604Z,101502.28
2023-03-29T01:59:23.289Z,101494.50
2023-03-29T02:01:52.881Z,101484.84
2023-03-29T02:04:29.070Z,101486.59
2023-03-29T02:06:57.903Z,101484.72
2023-03-29T02:09:24.498Z,101489.84
2023-03-29T02:11:51.884Z,101487.25
2023-03-29T02:14:18.451Z,101486.47
2023-03-29T02:16:46.373Z,101485.50
2023-03-29T02:19:13.565Z,101485.31
2023-03-29T02:21:48.324Z,101482.63
2023-03-29T02:24:18.282Z,101460.81
2023-03-29T02:26:44.857Z,101464.44
2023-03-29T02:29:11.663Z,101470.53
2023-03-29T02:31:41.476Z,101466.16
2023-03-29T02:34:30.320Z,101461.75
2023-03-29T02:37:04.179Z,101458.28
2023-03-29T02:39:33.751Z,101453.06
2023-03-29T02:42:01.313Z,101449.53
2023-03-29T02:44:30.577Z,101447.72
2023-03-29T02:47:00.475Z,101447.63
2023-03-29T02:49:27.277Z,101452.84
2023-03-29T02:51:56.922Z,101451.94
2023-03-29T02:54:29.936Z,101440.63
2023-03-29T02:56:58.492Z,101441.38
2023-03-29T02:59:25.067Z,101444.03
2023-03-29T03:01:54.885Z,101449.34
2023-03-29T03:04:21.479Z,101443.22
2023-03-29T03:06:48.377Z,101439.66
2023-03-29T03:09:15.695Z,101431.81
2023-03-29T03:11:42.503Z,101434.38
2023-03-29T03:14:09.051Z,101435.06
2023-03-29T03:16:36.232Z,101441.97
2023-03-29T03:19:03.818Z,101429.63
2023-03-29T03:21:30.355Z,101427.72
2023-03-29T03:23:57.014Z,101440.81
2023-03-29T03:26:24.967Z,101420.59
2023-03-29T03:28:51.545Z,101423.28
2023-03-29T03:31:19.659Z,101425.81
2023-03-29T03:33:46.227Z,101424.94
2023-03-29T03:36:12.903Z,101421.56
2023-03-29T03:38:40.043Z,101420.63
2023-03-29T03:41:07.260Z,101423.22
2023-03-29T03:43:34.209Z,101426.66
2023-03-29T03:46:01.429Z,101408.16
2023-03-29T03:48:28.518Z,101414.41
2023-03-29T03:50:57.226Z,101417.84
2023-03-29T03:53:24.856Z,101424.03
2023-03-29T03:55:53.255Z,101419.72
2023-03-29T03:58:20.034Z,101424.19
2023-03-29T04:00:48.419Z,101419.88
2023-03-29T04:03:15.766Z,101427.72
2023-03-29T04:05:44.605Z,101412.66
2023-03-29T04:08:12.530Z,101413.44
2023-03-29T04:10:39.636Z,101417.91
2023-03-29T04:13:06.230Z,101405.53
2023-03-29T04:15:35.292Z,101411.81
2023-03-29T04:18:02.042Z,101403.88
2023-03-29T04:20:28.592Z,101400.47
2023-03-29T04:22:55.926Z,101395.09
2023-03-29T04:25:22.465Z,101399.59
2023-03-29T04:27:50.562Z,101397.84
2023-03-29T04:30:17.287Z,101391.56
2023-03-29T04:32:44.045Z,101393.34
2023-03-29T04:35:10.660Z,101395.13
2023-03-29T04:37:40.302Z,101386.34
2023-03-29T04:40:14.460Z,101381.75
2023-03-29T04:42:45.821Z,101381.78
2023-03-29T04:45:18.153Z,101381.72
2023-03-29T04:47:45.760Z,101386.03
2023-03-29T04:50:13.815Z,101384.28
2023-03-29T04:52:41.036Z,101386.13
2023-03-29T04:55:08.222Z,101393.09
2023-03-29T04:57:34.938Z,101396.66
2023-03-29T05:00:01.540Z,101408.03
2023-03-29T05:02:30.959Z,101410.63
2023-03-29T05:04:57.524Z,101401.78
2023-03-29T05:07:24.618Z,101400.84
2023-03-29T05:09:51.243Z,101402.69
2023-03-29T05:12:17.850Z,101407.84
2023-03-29T05:14:44.432Z,101406.03
2023-03-29T05:17:10.947Z,101404.28
2023-03-29T05:19:38.352Z,101411.38
2023-03-29T05:22:04.994Z,101406.75
2023-03-29T05:24:31.778Z,101405.94
2023-03-29T05:26:58.365Z,101402.47
2023-03-29T05:29:25.004Z,101402.53
2023-03-29T05:31:52.498Z,101405.06
2023-03-29T05:34:20.156Z,101408.44
2023-03-29T05:36:46.712Z,101405.72
2023-03-29T05:39:13.521Z,101400.47
2023-03-29T05:41:40.394Z,101404.13
2023-03-29T05:44:07.376Z,101402.19
2023-03-29T05:46:34.304Z,101401.31
2023-03-29T05:49:01.701Z,101400.38
2023-03-29T05:51:28.267Z,101399.44
2023-03-29T05:53:54.830Z,101396.66
2023-03-29T05:56:22.878Z,101400.13
2023-03-29T05:58:49.551Z,101393.91
2023-03-29T06:01:17.995Z,101391.19
2023-03-29T06:03:46.258Z,101394.69
2023-03-29T06:06:16.475Z,101387.63
2023-03-29T06:08:44.067Z,101394.41
2023-03-29T06:11:12.124Z,101393.44
2023-03-29T06:13:39.115Z,101396.94
2023-03-29T06:16:10.118Z,101395.16
2023-03-29T06:18:38.137Z,101390.69
2023-03-29T06:21:05.102Z,101401.09
2023-03-29T06:23:32.114Z,101392.25
2023-03-29T06:26:00.183Z,101399.22
2023-03-29T06:28:26.778Z,101404.34
2023-03-29T06:30:56.569Z,101400.00
2023-03-29T06:33:24.210Z,101406.22
2023-03-29T06:35:50.787Z,101401.56
2023-03-29T06:38:17.602Z,101401.66
2023-03-29T06:40:44.760Z,101390.97
2023-03-29T06:43:11.915Z,101398.88
2023-03-29T06:45:38.983Z,101391.81
2023-03-29T06:48:06.450Z,101400.56
2023-03-29T06:50:34.343Z,101405.00
2023-03-29T06:53:01.789Z,101410.03
2023-03-29T06:55:28.713Z,101419.78
2023-03-29T06:57:55.419Z,101417.84
2023-03-29T07:00:28.651Z,101424.00
2023-03-29T07:02:56.556Z,101423.19
2023-03-29T07:05:23.957Z,101426.59
2023-03-29T07:11:46.723Z,101424.56
2023-03-29T07:14:13.219Z,101428.09
2023-03-29T07:16:39.847Z,101426.09
2023-03-29T07:19:06.427Z,101438.34
2023-03-29T07:21:34.905Z,101445.34
2023-03-29T07:24:04.624Z,101441.66
2023-03-29T07:26:32.231Z,101435.66
2023-03-29T07:28:59.056Z,101434.84
2023-03-29T07:31:25.670Z,101441.16
2023-03-29T07:33:53.257Z,101421.34
2023-03-29T07:36:19.936Z,101408.16
2023-03-29T07:38:49.096Z,101412.66
2023-03-29T07:41:16.053Z,101417.84
2023-03-29T07:43:42.838Z,101426.28
2023-03-29T07:46:10.318Z,101422.63
2023-03-29T07:48:37.238Z,101422.09
2023-03-29T07:51:04.653Z,101426.00
2023-03-29T07:53:31.320Z,101432.50
2023-03-29T07:55:57.903Z,101439.81
2023-03-29T07:58:24.474Z,101434.19
2023-03-29T08:00:51.035Z,101432.44
2023-03-29T08:03:17.804Z,101434.22
2023-03-29T08:05:45.010Z,101433.03
2023-03-29T08:08:11.688Z,101423.56
2023-03-29T08:10:39.519Z,101417.06
2023-03-29T08:13:08.372Z,101427.69
2023-03-29T08:15:35.936Z,101426.44
2023-03-29T08:18:05.300Z,101422.84
2023-03-29T08:20:32.658Z,101423.81
2023-03-29T08:22:59.443Z,101413.53
2023-03-29T08:25:25.964Z,101419.09
2023-03-29T08:27:53.085Z,101422.47
2023-03-29T08:30:19.731Z,101430.91
2023-03-29T08:32:49.325Z,101426.44
2023-03-29T08:35:17.554Z,101422.06
2023-03-29T08:37:44.062Z,101411.34
2023-03-29T08:40:17.680Z,101421.16
2023-03-29T08:42:57.102Z,101424.72
2023-03-29T08:45:50.457Z,101432.97
2023-03-29T08:48:28.543Z,101415.31
2023-03-29T08:50:59.590Z,101412.53
2023-03-29T08:53:32.154Z,101423.72
2023-03-29T08:56:00.349Z,101421.38
2023-03-29T08:58:30.080Z,101424.19
2023-03-29T09:00:58.303Z,101423.00
2023-03-29T09:03:26.196Z,101412.69
2023-03-29T09:05:58.528Z,101404.50
2023-03-29T09:08:25.641Z,101404.72
2023-03-29T09:11:05.066Z,101411.81
2023-03-29T09:13:45.042Z,101427.97
2023-03-29T09:16:17.395Z,101418.28
2023-03-29T09:18:51.478Z,101410.19
2023-03-29T09:22:19.491Z,101418.03
2023-03-29T09:24:52.117Z,101412.53
2023-03-29T09:27:18.558Z,101414.56
2023-03-29T09:30:26.040Z,101421.53
2023-03-29T09:32:53.858Z,101433.06
2023-03-29T09:35:24.594Z,101435.16
2023-03-29T09:37:52.736Z,101441.47
2023-03-29T09:40:25.243Z,101441.28
2023-03-29T09:42:52.909Z,101442.31
2023-03-29T09:45:19.536Z,101444.94
2023-03-29T09:47:47.442Z,101440.66
2023-03-29T09:50:30.333Z,101429.66
2023-03-29T09:52:57.856Z,101441.31
2023-03-29T09:55:28.468Z,101429.88
2023-03-29T09:57:59.063Z,101426.00
2023-03-29T10:00:25.927Z,101418.81
2023-03-29T10:02:54.684Z,101419.53
2023-03-29T10:05:21.996Z,101415.28
2023-03-29T10:07:52.041Z,101418.06
2023-03-29T10:10:28.801Z,101416.19
2023-03-29T10:13:05.396Z,101415.06
2023-03-29T10:15:32.193Z,101413.75
2023-03-29T10:18:01.033Z,101408.66
2023-03-29T10:20:28.114Z,101405.72
2023-03-29T10:22:56.778Z,101400.91
2023-03-29T10:25:31.274Z,101392.97
2023-03-29T10:28:05.189Z,101386.78
2023-03-29T10:30:36.076Z,101387.97
2023-03-29T10:33:03.383Z,101378.16
2023-03-29T10:35:41.753Z,101383.25
2023-03-29T10:38:13.400Z,101366.03
2023-03-29T10:40:48.156Z,101353.81
2023-03-29T10:43:17.697Z,101352.69
2023-03-29T10:45:44.326Z,101351.81
2023-03-29T10:48:13.124Z,101360.53
2023-03-29T10:50:39.643Z,101363.53
2023-03-29T10:53:23.550Z,101366.94
2023-03-29T10:56:15.009Z,101374.88
2023-03-29T10:59:23.617Z,101376.03
2023-03-29T11:02:11.580Z,101361.22
2023-03-29T11:04:52.773Z,101374.63
2023-03-29T11:07:28.394Z,101381.66
2023-03-29T11:10:01.019Z,101390.75
2023-03-29T11:12:31.340Z,101382.16
2023-03-29T11:15:01.460Z,101396.63
2023-03-29T11:17:59.989Z,101400.25
2023-03-29T11:20:35.754Z,101399.28
2023-03-29T11:23:11.388Z,101398.78
2023-03-29T11:25:43.282Z,101400.41
2023-03-29T11:28:22.283Z,101393.13
2023-03-29T11:31:01.648Z,101398.56
2023-03-29T11:33:57.188Z,101405.41
2023-03-29T11:36:42.138Z,101400.75
2023-03-29T11:39:17.471Z,101399.69
2023-03-29T11:41:46.986Z,101396.09
2023-03-29T11:44:18.031Z,101373.97
2023-03-29T11:46:53.199Z,101377.50
2023-03-29T11:49:57.407Z,101367.47
2023-03-29T11:52:35.852Z,101379.06
2023-03-29T11:55:26.510Z,101361.50
2023-03-29T11:57:58.893Z,101346.22
2023-03-29T12:00:30.227Z,101345.81
2023-03-29T12:03:06.774Z,101359.13
2023-03-29T12:05:46.879Z,101366.44
2023-03-29T12:08:25.929Z,101355.16
2023-03-29T12:11:16.939Z,101350.78
2023-03-29T12:13:49.133Z,101347.34
2023-03-29T12:16:20.657Z,101321.59
2023-03-29T12:18:49.211Z,101331.59
2023-03-29T12:21:20.161Z,101333.97
2023-03-29T12:23:48.106Z,101334.56
2023-03-29T12:26:17.589Z,101314.59
2023-03-29T12:28:44.021Z,101310.88
2023-03-29T12:31:24.080Z,101301.59
2023-03-29T12:36:43.878Z,101285.81
2023-03-29T12:39:18.828Z,101303.34
2023-03-29T12:41:49.018Z,101297.09
2023-03-29T12:44:16.704Z,101280.16
2023-03-29T12:46:43.758Z,101289.16
2023-03-29T12:49:21.081Z,101284.41
2023-03-29T12:51:47.838Z,101293.94
2023-03-29T12:54:16.450Z,101288.53
2023-03-29T12:56:52.136Z,101284.97
2023-03-29T12:59:45.157Z,101272.66
2023-03-29T13:02:14.752Z,101265.31
2023-03-29T13:04:53.817Z,101247.66
2023-03-29T13:07:23.546Z,101254.25
2023-03-29T13:09:51.786Z,101256.31
2023-03-29T13:12:27.058Z,101255.47
2023-03-29T13:14:59.901Z,101245.78
2023-03-29T13:17:48.442Z,101252.41
2023-03-29T13:20:32.960Z,101241.78
2023-03-29T13:23:21.169Z,101245.41
2023-03-29T13:26:27.174Z,101226.00
2023-03-29T13:29:22.414Z,101231.94
2023-03-29T13:32:03.678Z,101225.50
2023-03-29T13:34:43.110Z,101220.38
2023-03-29T13:37:25.040Z,101213.81
2023-03-29T13:39:55.201Z,101216.75
2023-03-29T13:42:25.893Z,101215.63
2023-03-29T13:44:53.829Z,101206.88
2023-03-29T13:47:32.467Z,101211.00
2023-03-29T13:50:01.500Z,101212.44
2023-03-29T13:52:31.452Z,101211.66
2023-03-29T13:54:58.212Z,101196.31
2023-03-29T13:57:39.794Z,101193.47
2023-03-29T14:00:18.197Z,101176.69
2023-03-29T14:02:51.036Z,101182.53
2023-03-29T14:05:24.557Z,101176.44
2023-03-29T14:07:53.050Z,101173.75
2023-03-29T14:10:36.206Z,101167.28
2023-03-29T14:13:04.077Z,101160.03
2023-03-29T14:15:45.965Z,101155.13
2023-03-29T14:18:15.687Z,101137.13
2023-03-29T14:20:50.716Z,101144.22
2023-03-29T14:23:21.230Z,101127.78
2023-03-29T14:25:48.153Z,101121.91
2023-03-29T14:28:25.907Z,101139.13
2023-03-29T14:30:53.661Z,101134.53
2023-03-29T14:33:27.969Z,101130.00
2023-03-29T14:35:55.670Z,101111.13
2023-03-29T14:38:26.259Z,101125.22
2023-03-29T14:40:53.389Z,101122.97
2023-03-29T14:43:24.455Z,101114.41
2023-03-29T14:45:51.151Z,101115.34
2023-03-29T14:48:18.040Z,101112.44
2023-03-29T14:50:45.857Z,101097.34
2023-03-29T14:53:20.735Z,101108.56
2023-03-29T14:55:52.395Z,101116.97
2023-03-29T14:58:40.197Z,101119.13
2023-03-29T15:01:14.104Z,101097.19
2023-03-29T15:03:43.915Z,101085.34
2023-03-29T15:06:11.837Z,101080.94
2023-03-29T15:08:42.704Z,101080.72
2023-03-29T15:11:21.851Z,101083.72
2023-03-29T15:13:49.861Z,101091.38
2023-03-29T15:16:19.652Z,101080.41
2023-03-29T15:18:47.378Z,101081.47
2023-03-29T15:21:16.765Z,101064.53
2023-03-29T15:23:53.596Z,101060.53
2023-03-29T15:26:34.392Z,101053.34
2023-03-29T15:29:08.016Z,101062.34
2023-03-29T15:31:37.372Z,101058.81
2023-03-29T15:34:25.043Z,101057.97
2023-03-29T15:36:52.057Z,101052.53
2023-03-29T15:39:20.017Z,101033.94
2023-03-29T15:41:48.463Z,101031.50
2023-03-29T15:44:17.563Z,101018.00
2023-03-29T15:46:45.225Z,101024.47
2023-03-29T15:49:12.671Z,101014.59
2023-03-29T15:51:39.856Z,101005.78
2023-03-29T15:54:06.508Z,100996.91
2023-03-29T15:56:37.139Z,100982.72
2023-03-29T15:59:06.977Z,100986.88
2023-03-29T16:01:37.686Z,100983.75
2023-03-29T16:04:12.222Z,100974.13
2023-03-29T16:06:39.015Z,100987.63
2023-03-29T16:09:07.019Z,100979.31
2023-03-29T16:11:33.643Z,100983.47
2023-03-29T16:14:00.286Z,100973.69
2023-03-29T16:16:27.176Z,100973.31
2023-03-29T16:18:53.739Z,100966.84
2023-03-29T16:21:22.259Z,100969.91
2023-03-29T16:23:48.839Z,100960.28
2023-03-29T16:26:16.792Z,100970.00
2023-03-29T16:28:43.521Z,100964.09
2023-03-29T16:31:13.811Z,100953.94
2023-03-29T16:33:40.982Z,100961.31
2023-03-29T16:36:08.249Z,100963.34
2023-03-29T16:38:35.443Z,100955.31
2023-03-29T16:41:02.546Z,100946.97
2023-03-29T16:43:29.393Z,100953.34
2023-03-29T16:45:56.859Z,100942.50
2023-03-29T16:48:23.792Z,100946.19
2023-03-29T16:50:50.678Z,100938.41
2023-03-29T16:53:18.634Z,100920.28
2023-03-29T16:55:46.421Z,100908.91
2023-03-29T16:58:13.626Z,100924.09
2023-03-29T17:00:40.939Z,100907.84
2023-03-29T17:03:08.031Z,100911.81
2023-03-29T17:05:39.940Z,100913.84
2023-03-29T17:08:07.368Z,100907.75
2023-03-29T17:10:33.916Z,100904.53
2023-03-29T17:13:00.878Z,100890.72
2023-03-29T17:15:27.720Z,100899.19
2023-03-29T17:17:54.281Z,100882.66
2023-03-29T17:20:20.790Z,100873.25
2023-03-29T17:22:51.497Z,100886.94
2023-03-29T17:25:18.488Z,100880.47
2023-03-29T17:27:46.112Z,100891.59
2023-03-29T17:30:12.997Z,100881.81
2023-03-29T17:32:41.337Z,100877.44
2023-03-29T17:35:08.484Z,100883.16
2023-03-29T17:37:35.996Z,100880.69
2023-03-29T17:40:15.267Z,100872.00
2023-03-29T17:42:42.686Z,100862.59
2023-03-29T17:45:10.636Z,100868.69
2023-03-29T17:47:38.450Z,100866.03
2023-03-29T17:50:06.747Z,100844.25
2023-03-29T17:52:33.349Z,100855.59
2023-03-29T17:54:59.924Z,100857.56
2023-03-29T17:57:26.613Z,100857.56
2023-03-29T17:59:53.188Z,100858.53
2023-03-29T18:02:22.287Z,100853.59
2023-03-29T18:04:49.058Z,100861.09
2023-03-29T18:07:16.294Z,100855.50
2023-03-29T18:09:42.839Z,100850.34
2023-03-29T18:12:09.410Z,100850.75
2023-03-29T18:14:36.023Z,100856.16
2023-03-29T18:17:02.808Z,100848.56
2023-03-29T18:19:29.514Z,100846.00
2023-03-29T18:21:56.373Z,100841.44
2023-03-29T18:24:22.879Z,100851.69
2023-03-29T18:26:49.479Z,100840.84
2023-03-29T18:29:16.355Z,100837.75
2023-03-29T18:31:43.661Z,100856.44
2023-03-29T18:34:10.260Z,100843.16
2023-03-29T18:36:37.141Z,100838.16
2023-03-29T18:39:06.774Z,100831.09
2023-03-29T18:41:34.602Z,100822.72
2023-03-29T18:44:01.373Z,100831.53
2023-03-29T18:46:31.943Z,100828.03
2023-03-29T18:48:59.491Z,100828.50
2023-03-29T18:51:28.038Z,100825.16
2023-03-29T18:53:55.913Z,100810.81
2023-03-29T18:56:22.752Z,100813.22
2023-03-29T18:58:49.492Z,100809.53
2023-03-29T19:01:16.395Z,100799.28
2023-03-29T19:03:43.169Z,100791.09
2023-03-29T19:06:09.920Z,100795.56
2023-03-29T19:08:38.755Z,100797.94
2023-03-29T19:11:07.499Z,100793.38
2023-03-29T19:13:34.587Z,100785.41
2023-03-29T19:16:01.486Z,100766.41
2023-03-29T19:18:28.207Z,100775.25
2023-03-29T19:20:54.885Z,100751.88
2023-03-29T19:23:25.119Z,100757.09
2023-03-29T19:25:56.494Z,100765.81
2023-03-29T19:28:24.281Z,100753.25
2023-03-29T19:30:51.219Z,100748.72
2023-03-29T19:33:18.439Z,100745.66
2023-03-29T19:35:45.084Z,100748.50
2023-03-29T19:38:11.764Z,100747.09
2023-03-29T19:40:38.502Z,100745.84
2023-03-29T19:43:05.244Z,100737.31
2023-03-29T19:45:31.839Z,100737.50
2023-03-29T19:48:02.823Z,100726.59
2023-03-29T19:50:31.658Z,100724.31
2023-03-29T19:52:58.628Z,100707.19
2023-03-29T19:55:25.960Z,100724.19
2023-03-29T19:57:52.553Z,100713.56
2023-03-29T20:00:24.303Z,100713.19
2023-03-29T20:02:52.311Z,100705.00
2023-03-29T20:05:19.085Z,100697.75
2023-03-29T20:07:45.703Z,100692.34
2023-03-29T20:10:12.244Z,100681.69
2023-03-29T20:12:38.805Z,100677.34
2023-03-29T20:15:06.131Z,100668.28
2023-03-29T20:17:35.611Z,100673.44
2023-03-29T20:20:07.794Z,100659.25
2023-03-29T20:22:34.413Z,100658.41
2023-03-29T20:25:00.957Z,100643.31
2023-03-29T20:27:29.362Z,100638.50
2023-03-29T20:29:56.092Z,100637.56
2023-03-29T20:32:22.740Z,100637.63
2023-03-29T20:34:49.363Z,100633.50
2023-03-29T20:37:15.918Z,100639.09
2023-03-29T20:39:42.456Z,100633.88
2023-03-29T20:42:08.967Z,100645.06
2023-03-29T20:44:35.712Z,100638.50
2023-03-29T20:47:03.365Z,100638.72
2023-03-29T20:49:36.988Z,100645.28
2023-03-29T20:52:07.947Z,100634.19
2023-03-29T20:54:35.743Z,100627.47
2023-03-29T20:57:02.358Z,100619.47
2023-03-29T20:59:29.755Z,100615.78
2023-03-29T21:01:56.660Z,100605.88
2023-03-29T21:04:23.381Z,100599.41
2023-03-29T21:06:49.843Z,100610.13
2023-03-29T21:09:19.166Z,100601.13
2023-03-29T21:11:45.739Z,100602.19
2023-03-29T21:14:12.341Z,100610.09
2023-03-29T21:16:42.388Z,100601.47
2023-03-29T21:19:09.629Z,100590.25
2023-03-29T21:21:36.397Z,100605.19
2023-03-29T21:24:03.867Z,100589.13
2023-03-29T21:26:30.550Z,100589.00
2023-03-29T21:28:57.157Z,100571.06
2023-03-29T21:31:23.953Z,100585.28
2023-03-29T21:33:50.630Z,100593.16
2023-03-29T21:36:17.142Z,100589.75
2023-03-29T21:38:43.663Z,100586.25
2023-03-29T21:41:11.979Z,100586.13
2023-03-29T21:43:39.270Z,100588.91
2023-03-29T21:46:06.162Z,100594.13
2023-03-29T21:48:33.024Z,100592.84
2023-03-29T21:50:59.544Z,100584.25
2023-03-29T21:53:27.210Z,100596.66
2023-03-29T21:55:54.076Z,100594.78
2023-03-29T21:58:21.048Z,100588.78
2023-03-29T22:00:48.191Z,100580.09
2023-03-29T22:03:15.827Z,100579.63
2023-03-29T22:05:42.724Z,100565.78
2023-03-29T22:08:12.034Z,100581.19
2023-03-29T22:10:41.236Z,100574.38
2023-03-29T22:13:08.771Z,100551.06
2023-03-29T22:15:35.629Z,100574.38
2023-03-29T22:18:05.352Z,100576.47
2023-03-29T22:20:35.745Z,100554.34
2023-03-29T22:23:03.278Z,100563.38
2023-03-29T22:25:29.798Z,100555.94
2023-03-29T22:27:56.312Z,100584.50
2023-03-29T22:30:22.954Z,100564.28
2023-03-29T22:32:49.551Z,100555.84
2023-03-29T22:35:16.229Z,100557.28
2023-03-29T22:37:43.669Z,100548.41
2023-03-29T22:40:11.532Z,100549.38
2023-03-29T22:42:38.110Z,100567.41
2023-03-29T22:45:06.386Z,100547.31
2023-03-29T22:47:32.853Z,100569.25
2023-03-29T22:49:59.383Z,100555.19
2023-03-29T22:52:26.190Z,100549.41
2023-03-29T22:54:52.719Z,100544.19
2023-03-29T22:57:19.301Z,100550.47
2023-03-29T22:59:46.129Z,100542.28
2023-03-29T23:02:12.617Z,100537.19
2023-03-29T23:04:39.268Z,100524.34
2023-03-29T23:07:06.477Z,100534.84
2023-03-29T23:09:33.021Z,100541.88
2023-03-29T23:12:01.086Z,100536.16
2023-03-29T23:14:27.862Z,100528.88
2023-03-29T23:16:54.430Z,100538.69
2023-03-29T23:19:21.097Z,100527.94
2023-03-29T23:21:47.707Z,100534.97
2023-03-29T23:24:18.828Z,100526.50
2023-03-29T23:26:45.843Z,100539.38
2023-03-29T23:29:12.524Z,100561.13
2023-03-29T23:31:39.066Z,100537.28
2023-03-29T23:34:05.643Z,100544.50
2023-03-29T23:36:32.286Z,100545.69
2023-03-29T23:38:59.526Z,100523.84
2023-03-29T23:41:28.345Z,100532.94
2023-03-29T23:43:57.581Z,100527.44
2023-03-29T23:46:24.641Z,100523.50
2023-03-29T23:48:51.400Z,100531.47
2023-03-29T23:51:23.020Z,100519.31
2023-03-29T23:53:50.179Z,100511.25
2023-03-29T23:56:16.878Z,100505.38
2023-03-29T23:58:44.393Z,100492.84
